createdAt,value
2023-05-01T00:02:18.938Z,9.95
2023-05-01T00:04:48.983Z,9.10
2023-05-01T00:07:19.107Z,9.50
2023-05-01T00:09:49.022Z,10.18
2023-05-01T00:12:21.464Z,9.15
2023-05-01T00:14:51.309Z,9.68
2023-05-01T00:17:22.935Z,10.52
2023-05-01T00:19:55.209Z,9.90
2023-05-01T00:22:25.329Z,10.50
2023-05-01T00:24:55.168Z,10.40
2023-05-01T00:27:27.770Z,10.80
2023-05-01T00:29:57.891Z,10.05
2023-05-01T00:32:28.077Z,9.85
2023-05-01T00:34:58.015Z,10.50
2023-05-01T00:37:27.928Z,10.25
2023-05-01T00:39:58.061Z,9.93
2023-05-01T00:42:30.830Z,9.98
2023-05-01T00:45:00.697Z,10.15
2023-05-01T00:47:30.747Z,10.52
2023-05-01T00:50:00.821Z,10.20
2023-05-01T00:52:30.834Z,10.68
2023-05-01T00:55:00.903Z,10.55
2023-05-01T00:57:33.752Z,9.88
2023-05-01T01:00:04.270Z,10.40
2023-05-01T01:02:34.737Z,9.70
2023-05-01T01:05:05.283Z,10.45
2023-05-01T01:07:42.732Z,9.25
2023-05-01T01:10:22.490Z,9.80
2023-05-01T01:13:04.600Z,10.30
2023-05-01T01:15:39.434Z,10.07
2023-05-01T01:18:15.482Z,9.55
2023-05-01T01:20:49.319Z,10.75
2023-05-01T01:23:44.648Z,10.75
2023-05-01T01:26:36.017Z,10.70
2023-05-01T01:29:30.627Z,10.68
2023-05-01T01:32:12.115Z,10.55
2023-05-01T01:34:50.493Z,10.60
2023-05-01T01:37:23.697Z,10.55
2023-05-01T01:39:59.447Z,11.15
2023-05-01T01:42:37.689Z,10.77
2023-05-01T01:45:14.960Z,10.40
2023-05-01T01:47:46.154Z,11.20
2023-05-01T01:50:21.482Z,11.52
2023-05-01T01:52:53.027Z,10.68
2023-05-01T01:55:27.832Z,10.68
2023-05-01T01:57:58.852Z,11.27
2023-05-01T02:00:29.970Z,10.73
2023-05-01T02:03:02.884Z,11.10
2023-05-01T02:05:37.525Z,10.20
2023-05-01T02:08:08.511Z,11.32
2023-05-01T02:10:40.053Z,11.38
2023-05-01T02:13:10.127Z,11.45
2023-05-01T02:15:42.941Z,11.65
2023-05-01T02:18:13.098Z,10.95
2023-05-01T02:20:46.345Z,11.60
2023-05-01T02:23:16.563Z,12.07
2023-05-01T02:25:49.159Z,10.88
2023-05-01T02:28:23.924Z,10.57
2023-05-01T02:30:53.964Z,11.48
2023-05-01T02:33:24.072Z,11.32
2023-05-01T02:35:56.482Z,11.52
2023-05-01T02:38:26.960Z,10.90
2023-05-01T02:40:59.693Z,11.38
2023-05-01T02:43:31.531Z,10.85
2023-05-01T02:46:02.410Z,11.00
2023-05-01T02:48:34.549Z,11.13
2023-05-01T02:51:11.731Z,10.90
2023-05-01T02:53:42.469Z,10.23
2023-05-01T02:56:12.525Z,10.05
2023-05-01T02:58:42.937Z,10.40
2023-05-01T03:01:12.910Z,9.75
2023-05-01T03:03:42.901Z,10.00
2023-05-01T03:06:15.876Z,9.77
2023-05-01T03:08:46.028Z,9.40
2023-05-01T03:11:16.066Z,9.68
2023-05-01T03:13:46.544Z,9.63
2023-05-01T03:16:16.547Z,8.90
2023-05-01T03:18:46.382Z,8.85
2023-05-01T03:21:18.834Z,8.65
2023-05-01T03:23:49.273Z,9.38
2023-05-01T03:26:19.169Z,8.70
2023-05-01T03:28:49.092Z,8.85
2023-05-01T03:31:19.156Z,9.02
2023-05-01T03:33:49.045Z,8.48
2023-05-01T03:36:22.150Z,8.60
2023-05-01T03:38:52.002Z,8.73
2023-05-01T03:41:21.873Z,8.35
2023-05-01T03:43:52.214Z,7.93
2023-05-01T03:46:22.196Z,8.07
2023-05-01T03:48:52.156Z,7.55
2023-05-01T03:51:24.582Z,8.90
2023-05-01T03:53:56.851Z,8.85
2023-05-01T03:56:27.556Z,9.45
2023-05-01T03:58:57.828Z,8.77
2023-05-01T04:01:27.642Z,8.73
2023-05-01T04:03:57.608Z,9.18
2023-05-01T04:06:30.266Z,9.13
2023-05-01T04:09:00.144Z,8.98
2023-05-01T04:11:30.057Z,8.98
2023-05-01T04:13:59.929Z,9.13
2023-05-01T04:16:29.918Z,8.63
2023-05-01T04:18:59.828Z,8.50
2023-05-01T04:21:32.368Z,7.97
2023-05-01T04:24:02.178Z,8.07
2023-05-01T04:26:32.069Z,7.45
2023-05-01T04:29:02.241Z,7.80
2023-05-01T04:31:32.181Z,8.45
2023-05-01T04:34:02.042Z,7.85
2023-05-01T04:36:34.496Z,8.45
2023-05-01T04:39:04.516Z,9.18
2023-05-01T04:41:34.392Z,7.93
2023-05-01T04:44:04.245Z,7.97
2023-05-01T04:46:34.106Z,8.27
2023-05-01T04:49:04.006Z,8.70
2023-05-01T04:51:36.466Z,8.70
2023-05-01T04:54:07.107Z,8.57
2023-05-01T04:56:36.922Z,8.55
2023-05-01T04:59:06.791Z,8.13
2023-05-01T05:01:36.608Z,8.25
2023-05-01T05:04:06.679Z,8.18
2023-05-01T05:06:39.160Z,8.07
2023-05-01T05:09:09.046Z,8.20
2023-05-01T05:11:38.973Z,8.63
2023-05-01T05:14:08.791Z,7.75
2023-05-01T05:16:38.647Z,7.65
2023-05-01T05:19:08.499Z,7.80
2023-05-01T05:21:40.976Z,7.82
2023-05-01T05:24:11.017Z,8.18
2023-05-01T05:26:40.905Z,7.72
2023-05-01T05:29:10.836Z,7.70
2023-05-01T05:31:40.771Z,6.97
2023-05-01T05:34:11.513Z,6.95
2023-05-01T05:36:43.920Z,6.60
2023-05-01T05:39:13.984Z,7.10
2023-05-01T05:41:43.811Z,7.30
2023-05-01T05:44:13.599Z,7.45
2023-05-01T05:46:43.433Z,7.00
2023-05-01T05:49:13.285Z,7.40
2023-05-01T05:51:46.308Z,7.93
2023-05-01T05:54:16.162Z,7.40
2023-05-01T05:56:46.071Z,7.03
2023-05-01T05:59:17.381Z,7.65
2023-05-01T06:01:47.561Z,6.88
2023-05-01T06:04:17.688Z,7.00
2023-05-01T06:06:50.255Z,7.18
2023-05-01T06:09:20.356Z,6.93
2023-05-01T06:11:50.577Z,7.10
2023-05-01T06:14:20.406Z,7.68
2023-05-01T06:16:50.261Z,7.45
2023-05-01T06:19:20.128Z,7.32
2023-05-01T06:21:52.548Z,7.00
2023-05-01T06:24:22.429Z,7.55
2023-05-01T06:26:52.259Z,8.10
2023-05-01T06:29:22.330Z,7.43
2023-05-01T06:31:52.320Z,7.22
2023-05-01T06:34:22.270Z,8.05
2023-05-01T06:36:54.731Z,7.80
2023-05-01T06:39:24.600Z,6.60
2023-05-01T06:41:54.477Z,6.60
2023-05-01T06:44:24.297Z,6.20
2023-05-01T06:46:54.136Z,6.47
2023-05-01T06:49:23.993Z,5.82
2023-05-01T06:51:56.477Z,5.85
2023-05-01T06:54:26.556Z,5.35
2023-05-01T06:56:56.574Z,5.50
2023-05-01T06:59:26.441Z,5.80
2023-05-01T07:01:56.421Z,6.00
2023-05-01T07:04:26.657Z,5.63
2023-05-01T07:06:59.051Z,5.53
2023-05-01T07:09:28.907Z,5.65
2023-05-01T07:11:59.281Z,5.72
2023-05-01T07:14:29.193Z,5.65
2023-05-01T07:16:59.239Z,5.32
2023-05-01T07:19:29.168Z,5.57
2023-05-01T07:22:01.653Z,5.07
2023-05-01T07:24:31.474Z,6.00
2023-05-01T07:27:01.380Z,5.40
2023-05-01T07:29:31.249Z,5.10
2023-05-01T07:32:01.512Z,5.45
2023-05-01T07:34:32.212Z,5.60
2023-05-01T07:37:05.085Z,5.72
2023-05-01T07:39:34.923Z,5.53
2023-05-01T07:42:04.753Z,5.50
2023-05-01T07:44:34.581Z,5.80
2023-05-01T07:47:08.900Z,5.60
2023-05-01T07:49:39.901Z,6.43
2023-05-01T07:52:12.358Z,5.90
2023-05-01T07:54:42.198Z,6.15
2023-05-01T07:57:12.050Z,6.00
2023-05-01T07:59:41.952Z,6.20
2023-05-01T08:02:12.029Z,6.22
2023-05-01T08:04:42.081Z,6.45
2023-05-01T08:07:14.684Z,6.18
2023-05-01T08:09:45.536Z,5.95
2023-05-01T08:12:16.003Z,5.97
2023-05-01T08:14:45.859Z,6.95
2023-05-01T08:17:15.762Z,6.57
2023-05-01T08:19:45.785Z,5.88
2023-05-01T08:22:18.260Z,6.40
2023-05-01T08:24:48.072Z,5.90
2023-05-01T08:27:17.933Z,5.95
2023-05-01T08:29:47.913Z,6.55
2023-05-01T08:32:18.080Z,6.80
2023-05-01T08:34:48.025Z,6.13
2023-05-01T08:37:21.196Z,6.80
2023-05-01T08:39:51.156Z,6.70
2023-05-01T08:42:21.264Z,6.75
2023-05-01T08:44:51.680Z,7.20
2023-05-01T08:47:21.745Z,6.72
2023-05-01T08:49:55.294Z,7.45
2023-05-01T08:52:31.456Z,7.00
2023-05-01T08:55:03.034Z,7.57
2023-05-01T08:57:34.626Z,6.68
2023-05-01T09:00:07.332Z,7.28
2023-05-01T09:02:39.358Z,6.82
2023-05-01T09:05:10.882Z,7.40
2023-05-01T09:07:46.114Z,7.90
2023-05-01T09:10:18.051Z,7.13
2023-05-01T09:12:52.265Z,7.05
2023-05-01T09:15:22.210Z,7.05
2023-05-01T09:17:52.110Z,7.05
2023-05-01T09:20:24.018Z,6.68
2023-05-01T09:22:57.036Z,7.38
2023-05-01T09:25:27.049Z,6.90
2023-05-01T09:27:57.929Z,6.80
2023-05-01T09:30:35.889Z,6.90
2023-05-01T09:33:10.410Z,6.80
2023-05-01T09:35:57.177Z,6.65
2023-05-01T09:38:30.699Z,7.15
2023-05-01T09:41:07.756Z,6.70
2023-05-01T09:43:37.651Z,6.70
2023-05-01T09:46:10.519Z,7.22
2023-05-01T09:48:41.343Z,6.55
2023-05-01T09:51:25.422Z,6.95
2023-05-01T09:53:59.267Z,6.68
2023-05-01T09:56:29.733Z,6.97
2023-05-01T09:59:01.660Z,6.80
2023-05-01T10:01:42.200Z,6.68
2023-05-01T10:04:12.662Z,7.00
2023-05-01T10:06:43.454Z,7.07
2023-05-01T10:09:30.289Z,6.55
2023-05-01T10:12:00.621Z,7.78
2023-05-01T10:14:33.819Z,7.03
2023-05-01T10:17:03.684Z,6.85
2023-05-01T10:19:33.858Z,6.80
2023-05-01T10:22:03.742Z,6.75
2023-05-01T10:24:36.225Z,7.72
2023-05-01T10:27:08.009Z,6.88
2023-05-01T10:29:39.368Z,6.65
2023-05-01T10:32:11.011Z,6.43
2023-05-01T10:34:45.195Z,5.97
2023-05-01T10:37:18.303Z,6.95
2023-05-01T10:39:50.813Z,6.68
2023-05-01T10:42:20.640Z,6.25
2023-05-01T10:44:50.657Z,6.05
2023-05-01T10:47:48.656Z,6.65
2023-05-01T10:50:19.861Z,6.57
2023-05-01T10:53:20.306Z,6.60
2023-05-01T10:55:53.996Z,6.22
2023-05-01T10:58:54.143Z,6.60
2023-05-01T11:01:35.173Z,6.72
2023-05-01T11:04:08.423Z,6.47
2023-05-01T11:06:39.292Z,6.90
2023-05-01T11:09:39.843Z,6.80
2023-05-01T11:12:13.848Z,6.93
2023-05-01T11:15:05.894Z,6.72
2023-05-01T11:17:50.303Z,6.15
2023-05-01T11:20:53.733Z,7.35
2023-05-01T11:23:26.006Z,6.45
2023-05-01T11:26:07.579Z,6.95
2023-05-01T11:28:42.541Z,6.65
2023-05-01T11:31:13.179Z,6.82
2023-05-01T11:33:43.098Z,6.50
2023-05-01T11:36:14.269Z,6.82
2023-05-01T11:38:52.776Z,6.00
2023-05-01T11:41:23.993Z,6.55
2023-05-01T11:43:58.139Z,6.82
2023-05-01T11:46:28.761Z,6.53
2023-05-01T11:48:59.061Z,6.80
2023-05-01T11:51:30.434Z,6.13
2023-05-01T11:54:03.550Z,6.43
2023-05-01T11:56:34.494Z,6.82
2023-05-01T11:59:13.344Z,6.72
2023-05-01T12:01:44.633Z,6.75
2023-05-01T12:04:15.955Z,6.60
2023-05-01T12:06:48.101Z,7.22
2023-05-01T12:09:20.465Z,7.60
2023-05-01T12:11:52.945Z,7.25
2023-05-01T12:14:25.929Z,7.20
2023-05-01T12:16:56.070Z,7.18
2023-05-01T12:19:26.054Z,7.22
2023-05-01T12:22:08.813Z,7.38
2023-05-01T12:24:39.357Z,7.15
2023-05-01T12:27:09.602Z,7.57
2023-05-01T12:29:48.823Z,7.13
2023-05-01T12:32:19.100Z,6.75
2023-05-01T12:34:49.064Z,7.63
2023-05-01T12:37:19.074Z,6.47
2023-05-01T12:39:49.633Z,7.07
2023-05-01T12:42:19.975Z,6.35
2023-05-01T12:45:02.035Z,7.07
2023-05-01T12:47:40.022Z,6.82
2023-05-01T12:50:11.405Z,6.93
2023-05-01T12:52:41.348Z,6.30
2023-05-01T12:55:12.908Z,7.10
2023-05-01T12:57:55.566Z,6.95
2023-05-01T13:00:28.005Z,7.45
2023-05-01T13:02:57.966Z,7.30
2023-05-01T13:05:28.015Z,6.78
2023-05-01T13:07:59.108Z,7.53
2023-05-01T13:10:34.604Z,7.10
2023-05-01T13:13:05.084Z,7.50
2023-05-01T13:15:37.640Z,7.07
2023-05-01T13:18:08.078Z,7.07
2023-05-01T13:20:39.172Z,7.03
2023-05-01T13:23:13.610Z,7.50
2023-05-01T13:25:43.800Z,7.40
2023-05-01T13:28:20.209Z,7.32
2023-05-01T13:30:52.869Z,7.60
2023-05-01T13:33:22.800Z,7.22
2023-05-01T13:35:52.717Z,7.10
2023-05-01T13:38:24.771Z,8.60
2023-05-01T13:40:54.805Z,7.85
2023-05-01T13:43:24.641Z,7.40
2023-05-01T13:46:00.690Z,7.90
2023-05-01T13:48:30.572Z,7.40
2023-05-01T13:51:02.800Z,7.22
2023-05-01T13:53:32.968Z,7.68
2023-05-01T13:56:02.954Z,7.82
2023-05-01T13:58:32.759Z,7.28
2023-05-01T14:01:06.570Z,7.15
2023-05-01T14:03:43.872Z,7.60
2023-05-01T14:06:15.726Z,8.20
2023-05-01T14:08:46.405Z,7.53
2023-05-01T14:11:16.966Z,8.05
2023-05-01T14:13:49.696Z,7.93
2023-05-01T14:16:26.477Z,7.35
2023-05-01T14:18:58.307Z,7.28
2023-05-01T14:21:29.993Z,7.47
2023-05-01T14:24:00.485Z,7.28
2023-05-01T14:26:31.757Z,7.30
2023-05-01T14:29:01.795Z,7.57
2023-05-01T14:31:34.353Z,8.57
2023-05-01T14:34:06.256Z,7.35
2023-05-01T14:36:36.148Z,7.55
2023-05-01T14:39:06.888Z,7.78
2023-05-01T14:41:39.020Z,6.70
2023-05-01T14:44:08.884Z,8.00
2023-05-01T14:46:51.260Z,8.50
2023-05-01T14:49:24.506Z,7.60
2023-05-01T14:51:55.796Z,7.20
2023-05-01T14:54:25.633Z,7.75
2023-05-01T14:56:56.277Z,8.07
2023-05-01T14:59:26.714Z,7.82
2023-05-01T15:01:59.165Z,7.45
2023-05-01T15:04:29.211Z,7.70
2023-05-01T15:06:59.179Z,7.47
2023-05-01T15:09:28.987Z,7.43
2023-05-01T15:11:58.845Z,7.18
2023-05-01T15:14:31.534Z,7.55
2023-05-01T15:17:03.979Z,7.35
2023-05-01T15:19:33.800Z,6.78
2023-05-01T15:22:04.521Z,7.75
2023-05-01T15:24:34.792Z,7.38
2023-05-01T15:27:04.804Z,6.75
2023-05-01T15:29:35.276Z,6.90
2023-05-01T15:32:12.621Z,7.07
2023-05-01T15:34:43.444Z,6.55
2023-05-01T15:37:13.743Z,6.75
2023-05-01T15:39:43.658Z,7.18
2023-05-01T15:42:13.560Z,7.28
2023-05-01T15:44:43.841Z,6.47
2023-05-01T15:47:16.591Z,6.40
2023-05-01T15:49:46.565Z,7.20
2023-05-01T15:52:16.850Z,7.63
2023-05-01T15:54:49.232Z,6.55
2023-05-01T15:57:19.561Z,6.75
2023-05-01T15:59:51.368Z,5.95
2023-05-01T16:02:23.867Z,6.88
2023-05-01T16:04:54.195Z,6.60
2023-05-01T16:07:24.182Z,6.45
2023-05-01T16:09:55.574Z,5.90
2023-05-01T16:12:25.475Z,6.10
2023-05-01T16:14:55.411Z,6.43
2023-05-01T16:17:28.165Z,5.65
2023-05-01T16:19:58.269Z,6.38
2023-05-01T16:22:28.414Z,6.57
2023-05-01T16:25:01.324Z,6.00
2023-05-01T16:27:31.536Z,6.80
2023-05-01T16:30:02.142Z,6.53
2023-05-01T16:32:34.832Z,6.68
2023-05-01T16:35:05.679Z,7.20
2023-05-01T16:37:36.894Z,7.45
2023-05-01T16:40:10.368Z,6.55
2023-05-01T16:42:40.502Z,7.45
2023-05-01T16:45:12.015Z,5.03
2023-05-01T16:47:44.533Z,4.65
2023-05-01T16:50:14.694Z,4.78
2023-05-01T16:52:44.697Z,4.60
2023-05-01T16:55:14.881Z,4.00
2023-05-01T16:57:44.797Z,3.42
2023-05-01T17:00:16.556Z,3.30
2023-05-01T17:02:49.963Z,3.55
2023-05-01T17:05:20.540Z,2.77
2023-05-01T17:07:50.426Z,2.40
2023-05-01T17:10:20.445Z,2.28
2023-05-01T17:12:50.567Z,2.47
2023-05-01T17:15:20.606Z,2.60
2023-05-01T17:17:53.185Z,2.10
2023-05-01T17:20:23.023Z,2.58
2023-05-01T17:22:52.929Z,2.05
2023-05-01T17:25:22.845Z,2.50
2023-05-01T17:27:52.837Z,2.40
2023-05-01T17:30:22.934Z,2.38
2023-05-01T17:32:55.820Z,2.40
2023-05-01T17:35:26.399Z,2.65
2023-05-01T17:37:56.290Z,2.35
2023-05-01T17:40:27.493Z,3.10
2023-05-01T17:42:57.399Z,2.60
2023-05-01T17:45:27.350Z,2.60
2023-05-01T17:48:01.206Z,2.65
2023-05-01T17:50:31.189Z,2.80
2023-05-01T17:53:01.026Z,2.28
2023-05-01T17:55:30.924Z,2.72
2023-05-01T17:58:00.974Z,2.67
2023-05-01T18:00:31.664Z,2.78
2023-05-01T18:03:04.868Z,2.95
2023-05-01T18:05:34.818Z,3.40
2023-05-01T18:08:04.751Z,3.28
2023-05-01T18:10:34.594Z,3.90
2023-05-01T18:13:04.547Z,3.25
2023-05-01T18:15:34.485Z,3.53
2023-05-01T18:18:07.036Z,3.63
2023-05-01T18:20:36.880Z,4.20
2023-05-01T18:23:07.108Z,4.00
2023-05-01T18:25:37.157Z,3.95
2023-05-01T18:28:07.456Z,3.65
2023-05-01T18:30:37.687Z,3.50
2023-05-01T18:33:10.329Z,4.30
2023-05-01T18:35:42.280Z,3.85
2023-05-01T18:38:12.306Z,4.43
2023-05-01T18:40:42.269Z,4.85
2023-05-01T18:43:14.215Z,4.63
2023-05-01T18:45:44.121Z,4.40
2023-05-01T18:48:16.705Z,4.53
2023-05-01T18:50:54.140Z,4.72
2023-05-01T18:53:27.405Z,4.45
2023-05-01T18:55:57.300Z,4.40
2023-05-01T18:58:27.221Z,5.00
2023-05-01T19:00:58.144Z,5.05
2023-05-01T19:03:30.716Z,5.28
2023-05-01T19:06:00.670Z,5.15
2023-05-01T19:08:31.748Z,5.32
2023-05-01T19:11:01.825Z,5.38
2023-05-01T19:13:31.722Z,5.47
2023-05-01T19:16:01.685Z,5.53
2023-05-01T19:18:37.562Z,5.20
2023-05-01T19:21:07.686Z,5.40
2023-05-01T19:23:37.706Z,5.00
2023-05-01T19:26:08.897Z,6.13
2023-05-01T19:28:38.889Z,5.93
2023-05-01T19:31:09.325Z,5.47
2023-05-01T19:33:41.802Z,5.90
2023-05-01T19:36:11.628Z,6.30
2023-05-01T19:38:41.598Z,5.88
2023-05-01T19:41:11.648Z,5.75
2023-05-01T19:43:42.230Z,6.07
2023-05-01T19:46:12.473Z,5.82
2023-05-01T19:48:45.149Z,6.35
2023-05-01T19:51:14.977Z,6.60
2023-05-01T19:53:44.837Z,6.80
2023-05-01T19:56:14.703Z,6.53
2023-05-01T19:58:44.638Z,6.85
2023-05-01T20:01:14.594Z,6.78
2023-05-01T20:03:47.132Z,6.32
2023-05-01T20:06:17.297Z,6.47
2023-05-01T20:08:47.347Z,6.70
2023-05-01T20:11:17.305Z,6.30
2023-05-01T20:13:47.122Z,6.53
2023-05-01T20:16:16.984Z,6.68
2023-05-01T20:18:49.465Z,7.22
2023-05-01T20:21:19.293Z,7.60
2023-05-01T20:23:49.801Z,7.25
2023-05-01T20:26:20.384Z,6.68
2023-05-01T20:28:51.053Z,7.78
2023-05-01T20:31:21.538Z,7.25
2023-05-01T20:33:54.012Z,7.43
2023-05-01T20:36:25.358Z,7.55
2023-05-01T20:38:57.894Z,7.22
2023-05-01T20:41:28.469Z,6.97
2023-05-01T20:43:58.326Z,7.05
2023-05-01T20:46:28.415Z,6.90
2023-05-01T20:49:01.198Z,6.80
2023-05-01T20:51:32.186Z,6.40
2023-05-01T20:54:02.035Z,6.80
2023-05-01T20:56:31.970Z,6.30
2023-05-01T20:59:02.428Z,6.50
2023-05-01T21:01:32.897Z,6.40
2023-05-01T21:04:06.786Z,6.53
2023-05-01T21:06:36.798Z,6.20
2023-05-01T21:09:11.109Z,6.10
2023-05-01T21:11:42.420Z,5.97
2023-05-01T21:14:12.286Z,6.78
2023-05-01T21:16:42.444Z,6.18
2023-05-01T21:19:17.547Z,6.50
2023-05-01T21:21:47.443Z,6.32
2023-05-01T21:24:25.414Z,6.50
2023-05-01T21:26:56.736Z,6.50
2023-05-01T21:29:26.663Z,6.28
2023-05-01T21:31:56.589Z,6.70
2023-05-01T21:34:29.101Z,6.45
2023-05-01T21:36:59.094Z,6.00
2023-05-01T21:39:29.059Z,6.18
2023-05-01T21:41:59.056Z,6.57
2023-05-01T21:44:32.938Z,6.63
2023-05-01T21:47:04.473Z,6.85
2023-05-01T21:49:38.162Z,6.80
2023-05-01T21:52:08.919Z,6.63
2023-05-01T21:54:39.560Z,7.03
2023-05-01T21:57:09.416Z,6.85
2023-05-01T21:59:40.746Z,6.53
2023-05-01T22:02:11.586Z,7.20
2023-05-01T22:04:44.321Z,6.72
2023-05-01T22:07:14.242Z,6.28
2023-05-01T22:09:44.310Z,6.20
2023-05-01T22:12:14.120Z,5.60
2023-05-01T22:14:47.552Z,6.05
2023-05-01T22:17:24.154Z,6.47
2023-05-01T22:19:57.160Z,6.15
2023-05-01T22:22:27.174Z,5.63
2023-05-01T22:24:57.057Z,5.43
2023-05-01T22:27:26.962Z,5.15
2023-05-01T22:29:56.972Z,5.50
2023-05-01T22:32:27.299Z,6.05
2023-05-01T22:34:59.832Z,4.97
2023-05-01T22:37:29.646Z,5.80
2023-05-01T22:39:59.752Z,5.53
2023-05-01T22:42:29.940Z,5.57
2023-05-01T22:44:59.811Z,5.30
2023-05-01T22:47:29.761Z,5.30
2023-05-01T22:50:02.618Z,5.38
2023-05-01T22:52:32.735Z,5.50
2023-05-01T22:55:02.608Z,5.57
2023-05-01T22:57:32.434Z,5.82
2023-05-01T23:00:02.497Z,5.60
2023-05-01T23:02:32.742Z,5.90
2023-05-01T23:05:05.296Z,5.95
2023-05-01T23:07:35.452Z,5.50
2023-05-01T23:10:05.296Z,6.43
2023-05-01T23:12:36.238Z,5.93
2023-05-01T23:15:06.255Z,5.35
2023-05-01T23:17:38.153Z,5.00
2023-05-01T23:20:15.292Z,5.65
2023-05-01T23:22:45.657Z,5.72
2023-05-01T23:25:16.010Z,5.97
2023-05-01T23:27:51.223Z,5.43
2023-05-01T23:30:23.907Z,5.40
2023-05-01T23:32:54.864Z,5.63
2023-05-01T23:35:27.415Z,5.60
2023-05-01T23:37:57.273Z,5.60
2023-05-01T23:40:27.144Z,5.88
2023-05-01T23:42:57.622Z,6.18
2023-05-01T23:45:27.585Z,5.55
2023-05-01T23:47:57.802Z,5.63
2023-05-01T23:50:30.493Z,6.10
2023-05-01T23:53:02.568Z,5.63
2023-05-01T23:55:32.449Z,5.40
2023-05-01T23:58:02.334Z,6.47
